sensor_id;sensor_type;location;lat;lon;timestamp;P1;durP1;ratioP1;P2;durP2;ratioP2
17347;SDS011;8791;50.876;4.342;2024-03-23T00:54:39;14.33;;;9.10;;
17347;SDS011;8791;50.876;4.342;2024-03-23T00:57:06;16.00;;;9.63;;
17347;SDS011;8791;50.876;4.342;2024-03-23T00:59:32;23.70;;;8.60;;
17347;SDS011;8791;50.876;4.342;2024-03-23T01:01:59;13.57;;;8.00;;
17347;SDS011;8791;50.876;4.342;2024-03-23T01:04:25;10.03;;;6.87;;
17347;SDS011;8791;50.876;4.342;2024-03-23T01:06:52;11.97;;;7.67;;
17347;SDS011;8791;50.876;4.342;2024-03-23T01:09:18;13.93;;;8.47;;
17347;SDS011;8791;50.876;4.342;2024-03-23T01:11:46;14.47;;;7.40;;
17347;SDS011;8791;50.876;4.342;2024-03-23T01:14:13;18.27;;;6.87;;
17347;SDS011;8791;50.876;4.342;2024-03-23T01:16:39;14.83;;;6.73;;
17347;SDS011;8791;50.876;4.342;2024-03-23T01:19:06;17.07;;;7.53;;
17347;SDS011;8791;50.876;4.342;2024-03-23T01:21:32;17.73;;;7.47;;
17347;SDS011;8791;50.876;4.342;2024-03-23T01:23:59;16.57;;;7.10;;
17347;SDS011;8791;50.876;4.342;2024-03-23T01:26:25;20.50;;;7.23;;
17347;SDS011;8791;50.876;4.342;2024-03-23T01:28:53;10.63;;;6.67;;
17347;SDS011;8791;50.876;4.342;2024-03-23T01:31:19;18.03;;;7.97;;
17347;SDS011;8791;50.876;4.342;2024-03-23T01:33:46;11.07;;;7.33;;
17347;SDS011;8791;50.876;4.342;2024-03-23T01:36:12;16.97;;;7.50;;
17347;SDS011;8791;50.876;4.342;2024-03-23T01:38:39;15.57;;;7.13;;
17347;SDS011;8791;50.876;4.342;2024-03-23T01:41:05;17.93;;;7.47;;
17347;SDS011;8791;50.876;4.342;2024-03-23T01:43:32;18.13;;;7.47;;
17347;SDS011;8791;50.876;4.342;2024-03-23T01:45:59;21.67;;;7.40;;
17347;SDS011;8791;50.876;4.342;2024-03-23T01:48:26;14.33;;;7.60;;
17347;SDS011;8791;50.876;4.342;2024-03-23T01:50:52;15.03;;;7.80;;
17347;SDS011;8791;50.876;4.342;2024-03-23T01:53:19;23.17;;;8.03;;
17347;SDS011;8791;50.876;4.342;2024-03-23T01:55:46;33.80;;;10.27;;
17347;SDS011;8791;50.876;4.342;2024-03-23T01:58:13;14.47;;;8.97;;
17347;SDS011;8791;50.876;4.342;2024-03-23T02:00:40;14.63;;;8.40;;
17347;SDS011;8791;50.876;4.342;2024-03-23T02:06:02;19.37;;;8.90;;
17347;SDS011;8791;50.876;4.342;2024-03-23T02:08:32;16.50;;;9.40;;
17347;SDS011;8791;50.876;4.342;2024-03-23T02:10:58;23.00;;;9.37;;
17347;SDS011;8791;50.876;4.342;2024-03-23T02:13:25;18.73;;;9.27;;
17347;SDS011;8791;50.876;4.342;2024-03-23T02:15:51;27.47;;;10.93;;
17347;SDS011;8791;50.876;4.342;2024-03-23T02:18:18;25.33;;;10.43;;
17347;SDS011;8791;50.876;4.342;2024-03-23T02:20:44;31.80;;;11.03;;
17347;SDS011;8791;50.876;4.342;2024-03-23T02:23:16;18.47;;;10.30;;
17347;SDS011;8791;50.876;4.342;2024-03-23T02:25:43;30.80;;;10.17;;
17347;SDS011;8791;50.876;4.342;2024-03-23T02:28:10;24.00;;;10.60;;
17347;SDS011;8791;50.876;4.342;2024-03-23T02:30:36;22.77;;;9.43;;
17347;SDS011;8791;50.876;4.342;2024-03-23T02:33:03;30.10;;;9.83;;
17347;SDS011;8791;50.876;4.342;2024-03-23T02:35:29;25.33;;;11.00;;
17347;SDS011;8791;50.876;4.342;2024-03-23T02:37:56;24.27;;;9.43;;
17347;SDS011;8791;50.876;4.342;2024-03-23T02:40:23;28.27;;;9.17;;
17347;SDS011;8791;50.876;4.342;2024-03-23T02:42:51;29.40;;;9.10;;
17347;SDS011;8791;50.876;4.342;2024-03-23T02:45:17;21.50;;;9.53;;
17347;SDS011;8791;50.876;4.342;2024-03-23T02:47:44;31.50;;;9.60;;
17347;SDS011;8791;50.876;4.342;2024-03-23T02:50:11;28.27;;;9.50;;
17347;SDS011;8791;50.876;4.342;2024-03-23T02:52:37;29.30;;;9.57;;
17347;SDS011;8791;50.876;4.342;2024-03-23T02:55:04;34.40;;;10.27;;
17347;SDS011;8791;50.876;4.342;2024-03-23T02:57:32;26.17;;;9.23;;
17347;SDS011;8791;50.876;4.342;2024-03-23T02:59:59;33.27;;;9.27;;
17347;SDS011;8791;50.876;4.342;2024-03-23T03:02:25;29.23;;;8.57;;
17347;SDS011;8791;50.876;4.342;2024-03-23T03:04:52;29.27;;;10.00;;
17347;SDS011;8791;50.876;4.342;2024-03-23T03:07:18;30.53;;;10.57;;
17347;SDS011;8791;50.876;4.342;2024-03-23T03:09:44;30.83;;;9.57;;
17347;SDS011;8791;50.876;4.342;2024-03-23T03:12:10;35.73;;;10.50;;
17347;SDS011;8791;50.876;4.342;2024-03-23T03:14:39;33.97;;;10.40;;
17347;SDS011;8791;50.876;4.342;2024-03-23T03:17:05;28.57;;;10.00;;
17347;SDS011;8791;50.876;4.342;2024-03-23T03:19:32;24.50;;;9.23;;
17347;SDS011;8791;50.876;4.342;2024-03-23T03:21:57;27.40;;;9.10;;
17347;SDS011;8791;50.876;4.342;2024-03-23T03:24:24;33.30;;;8.80;;
17347;SDS011;8791;50.876;4.342;2024-03-23T03:26:50;27.13;;;9.60;;
17347;SDS011;8791;50.876;4.342;2024-03-23T03:29:17;27.43;;;8.63;;
17347;SDS011;8791;50.876;4.342;2024-03-23T03:31:44;25.27;;;8.57;;
17347;SDS011;8791;50.876;4.342;2024-03-23T03:34:11;23.83;;;9.40;;
17347;SDS011;8791;50.876;4.342;2024-03-23T03:36:37;27.80;;;9.70;;
17347;SDS011;8791;50.876;4.342;2024-03-23T03:39:04;36.43;;;10.03;;
17347;SDS011;8791;50.876;4.342;2024-03-23T03:41:31;29.90;;;10.70;;
17347;SDS011;8791;50.876;4.342;2024-03-23T03:43:58;21.63;;;9.63;;
17347;SDS011;8791;50.876;4.342;2024-03-23T03:46:27;28.70;;;9.90;;
17347;SDS011;8791;50.876;4.342;2024-03-23T03:48:55;41.47;;;11.17;;
17347;SDS011;8791;50.876;4.342;2024-03-23T03:51:21;28.90;;;10.53;;
17347;SDS011;8791;50.876;4.342;2024-03-23T03:53:48;28.53;;;10.57;;
17347;SDS011;8791;50.876;4.342;2024-03-23T03:56:14;26.90;;;9.90;;
17347;SDS011;8791;50.876;4.342;2024-03-23T03:58:40;22.90;;;10.47;;
17347;SDS011;8791;50.876;4.342;2024-03-23T04:01:06;26.77;;;11.23;;
17347;SDS011;8791;50.876;4.342;2024-03-23T04:03:33;30.47;;;10.73;;
17347;SDS011;8791;50.876;4.342;2024-03-23T04:06:01;31.73;;;10.60;;
17347;SDS011;8791;50.876;4.342;2024-03-23T04:08:28;35.37;;;10.73;;
17347;SDS011;8791;50.876;4.342;2024-03-23T04:10:54;31.20;;;10.90;;
17347;SDS011;8791;50.876;4.342;2024-03-23T04:13:21;27.10;;;10.27;;
17347;SDS011;8791;50.876;4.342;2024-03-23T04:15:47;28.90;;;10.43;;
17347;SDS011;8791;50.876;4.342;2024-03-23T04:18:14;30.80;;;10.00;;
17347;SDS011;8791;50.876;4.342;2024-03-23T04:20:40;33.00;;;9.03;;
17347;SDS011;8791;50.876;4.342;2024-03-23T04:23:08;31.53;;;9.33;;
17347;SDS011;8791;50.876;4.342;2024-03-23T04:25:34;24.40;;;8.90;;
17347;SDS011;8791;50.876;4.342;2024-03-23T04:28:01;32.47;;;9.00;;
17347;SDS011;8791;50.876;4.342;2024-03-23T04:30:27;27.00;;;8.67;;
17347;SDS011;8791;50.876;4.342;2024-03-23T04:32:54;26.47;;;7.73;;
17347;SDS011;8791;50.876;4.342;2024-03-23T04:35:21;26.67;;;8.13;;
17347;SDS011;8791;50.876;4.342;2024-03-23T04:37:50;17.30;;;7.70;;
17347;SDS011;8791;50.876;4.342;2024-03-23T04:40:19;16.90;;;7.57;;
17347;SDS011;8791;50.876;4.342;2024-03-23T04:42:46;28.60;;;7.63;;
17347;SDS011;8791;50.876;4.342;2024-03-23T04:45:13;17.87;;;7.20;;
17347;SDS011;8791;50.876;4.342;2024-03-23T04:47:40;22.97;;;6.80;;
17347;SDS011;8791;50.876;4.342;2024-03-23T04:50:08;24.70;;;7.27;;
17347;SDS011;8791;50.876;4.342;2024-03-23T04:52:36;20.20;;;7.87;;
17347;SDS011;8791;50.876;4.342;2024-03-23T04:55:03;17.93;;;7.17;;
17347;SDS011;8791;50.876;4.342;2024-03-23T04:57:32;19.60;;;7.47;;
17347;SDS011;8791;50.876;4.342;2024-03-23T04:59:58;22.40;;;7.83;;
17347;SDS011;8791;50.876;4.342;2024-03-23T05:02:25;15.13;;;6.60;;
17347;SDS011;8791;50.876;4.342;2024-03-23T05:04:52;24.47;;;6.97;;
17347;SDS011;8791;50.876;4.342;2024-03-23T05:07:18;21.33;;;6.97;;
17347;SDS011;8791;50.876;4.342;2024-03-23T05:09:45;20.03;;;7.40;;
17347;SDS011;8791;50.876;4.342;2024-03-23T05:12:11;18.83;;;6.67;;
17347;SDS011;8791;50.876;4.342;2024-03-23T05:14:39;22.67;;;7.50;;
17347;SDS011;8791;50.876;4.342;2024-03-23T05:17:05;27.37;;;6.70;;
17347;SDS011;8791;50.876;4.342;2024-03-23T05:19:32;18.93;;;6.77;;
17347;SDS011;8791;50.876;4.342;2024-03-23T05:21:58;25.23;;;7.47;;
17347;SDS011;8791;50.876;4.342;2024-03-23T05:24:24;25.33;;;7.73;;
17347;SDS011;8791;50.876;4.342;2024-03-23T05:26:50;19.37;;;7.87;;
17347;SDS011;8791;50.876;4.342;2024-03-23T05:29:17;22.00;;;8.10;;
17347;SDS011;8791;50.876;4.342;2024-03-23T05:31:44;16.77;;;6.93;;
17347;SDS011;8791;50.876;4.342;2024-03-23T05:34:16;15.80;;;7.33;;
17347;SDS011;8791;50.876;4.342;2024-03-23T05:36:42;18.30;;;7.27;;
17347;SDS011;8791;50.876;4.342;2024-03-23T05:39:09;24.17;;;7.53;;
17347;SDS011;8791;50.876;4.342;2024-03-23T05:41:35;29.23;;;7.27;;
17347;SDS011;8791;50.876;4.342;2024-03-23T05:44:02;23.67;;;7.10;;
17347;SDS011;8791;50.876;4.342;2024-03-23T05:46:28;20.17;;;6.23;;
17347;SDS011;8791;50.876;4.342;2024-03-23T05:48:57;29.70;;;6.57;;
17347;SDS011;8791;50.876;4.342;2024-03-23T05:51:27;24.03;;;7.03;;
17347;SDS011;8791;50.876;4.342;2024-03-23T05:53:54;17.63;;;5.67;;
17347;SDS011;8791;50.876;4.342;2024-03-23T05:56:20;14.63;;;6.23;;
17347;SDS011;8791;50.876;4.342;2024-03-23T05:58:47;14.47;;;5.50;;
17347;SDS011;8791;50.876;4.342;2024-03-23T06:01:13;17.13;;;5.30;;
17347;SDS011;8791;50.876;4.342;2024-03-23T06:03:40;18.70;;;4.77;;
17347;SDS011;8791;50.876;4.342;2024-03-23T06:06:08;15.37;;;4.80;;
17347;SDS011;8791;50.876;4.342;2024-03-23T06:08:36;23.43;;;4.40;;
17347;SDS011;8791;50.876;4.342;2024-03-23T06:11:04;22.27;;;4.67;;
17347;SDS011;8791;50.876;4.342;2024-03-23T06:13:31;14.20;;;4.00;;
17347;SDS011;8791;50.876;4.342;2024-03-23T06:15:57;13.03;;;4.80;;
17347;SDS011;8791;50.876;4.342;2024-03-23T06:18:24;19.13;;;3.80;;
17347;SDS011;8791;50.876;4.342;2024-03-23T06:20:50;18.67;;;4.03;;
17347;SDS011;8791;50.876;4.342;2024-03-23T06:23:18;17.27;;;4.20;;
17347;SDS011;8791;50.876;4.342;2024-03-23T06:25:45;16.87;;;3.97;;
17347;SDS011;8791;50.876;4.342;2024-03-23T06:28:12;16.93;;;3.70;;
17347;SDS011;8791;50.876;4.342;2024-03-23T06:30:39;20.27;;;4.67;;
17347;SDS011;8791;50.876;4.342;2024-03-23T06:33:05;13.20;;;3.20;;
17347;SDS011;8791;50.876;4.342;2024-03-23T06:35:32;13.67;;;2.70;;
17347;SDS011;8791;50.876;4.342;2024-03-23T06:37:58;19.37;;;3.33;;
17347;SDS011;8791;50.876;4.342;2024-03-23T06:40:26;17.80;;;3.43;;
17347;SDS011;8791;50.876;4.342;2024-03-23T06:42:52;13.10;;;3.87;;
17347;SDS011;8791;50.876;4.342;2024-03-23T06:45:19;20.93;;;3.50;;
17347;SDS011;8791;50.876;4.342;2024-03-23T06:47:48;13.00;;;2.50;;
17347;SDS011;8791;50.876;4.342;2024-03-23T06:50:15;19.43;;;3.00;;
17347;SDS011;8791;50.876;4.342;2024-03-23T06:52:41;19.63;;;3.00;;
17347;SDS011;8791;50.876;4.342;2024-03-23T06:55:08;10.77;;;2.97;;
17347;SDS011;8791;50.876;4.342;2024-03-23T06:57:35;13.30;;;3.00;;
17347;SDS011;8791;50.876;4.342;2024-03-23T07:00:02;16.30;;;3.20;;
17347;SDS011;8791;50.876;4.342;2024-03-23T07:02:29;16.27;;;2.90;;
17347;SDS011;8791;50.876;4.342;2024-03-23T07:04:56;11.30;;;2.93;;
17347;SDS011;8791;50.876;4.342;2024-03-23T07:07:22;14.23;;;2.97;;
17347;SDS011;8791;50.876;4.342;2024-03-23T07:09:48;10.40;;;2.60;;
17347;SDS011;8791;50.876;4.342;2024-03-23T07:12:16;10.50;;;2.43;;
17347;SDS011;8791;50.876;4.342;2024-03-23T07:14:44;10.53;;;2.63;;
17347;SDS011;8791;50.876;4.342;2024-03-23T07:17:10;5.93;;;1.80;;
17347;SDS011;8791;50.876;4.342;2024-03-23T07:19:37;7.03;;;2.10;;
17347;SDS011;8791;50.876;4.342;2024-03-23T07:22:03;6.73;;;2.07;;
17347;SDS011;8791;50.876;4.342;2024-03-23T07:24:30;5.50;;;1.80;;
17347;SDS011;8791;50.876;4.342;2024-03-23T07:26:56;10.37;;;2.30;;
17347;SDS011;8791;50.876;4.342;2024-03-23T07:29:23;5.33;;;1.87;;
17347;SDS011;8791;50.876;4.342;2024-03-23T07:31:50;9.50;;;2.57;;
17347;SDS011;8791;50.876;4.342;2024-03-23T07:34:17;10.43;;;2.47;;
17347;SDS011;8791;50.876;4.342;2024-03-23T07:36:43;13.93;;;2.80;;
17347;SDS011;8791;50.876;4.342;2024-03-23T07:39:10;9.83;;;3.13;;
17347;SDS011;8791;50.876;4.342;2024-03-23T07:41:36;11.27;;;2.97;;
17347;SDS011;8791;50.876;4.342;2024-03-23T07:44:03;19.50;;;3.63;;
17347;SDS011;8791;50.876;4.342;2024-03-23T07:46:29;9.57;;;2.70;;
17347;SDS011;8791;50.876;4.342;2024-03-23T07:48:57;10.20;;;2.83;;
17347;SDS011;8791;50.876;4.342;2024-03-23T07:51:23;12.23;;;2.93;;
17347;SDS011;8791;50.876;4.342;2024-03-23T07:53:50;14.77;;;3.17;;
17347;SDS011;8791;50.876;4.342;2024-03-23T07:56:17;20.43;;;3.30;;
17347;SDS011;8791;50.876;4.342;2024-03-23T07:58:45;14.60;;;4.10;;
17347;SDS011;8791;50.876;4.342;2024-03-23T08:01:11;21.37;;;3.80;;
17347;SDS011;8791;50.876;4.342;2024-03-23T08:03:40;17.83;;;3.50;;
17347;SDS011;8791;50.876;4.342;2024-03-23T08:06:08;13.83;;;2.70;;
17347;SDS011;8791;50.876;4.342;2024-03-23T08:08:36;11.93;;;3.43;;
17347;SDS011;8791;50.876;4.342;2024-03-23T08:11:03;13.00;;;2.70;;
17347;SDS011;8791;50.876;4.342;2024-03-23T08:13:30;11.00;;;2.80;;
17347;SDS011;8791;50.876;4.342;2024-03-23T08:15:56;19.00;;;3.33;;
17347;SDS011;8791;50.876;4.342;2024-03-23T08:18:23;13.20;;;3.33;;
17347;SDS011;8791;50.876;4.342;2024-03-23T08:20:55;14.13;;;2.77;;
17347;SDS011;8791;50.876;4.342;2024-03-23T08:23:25;14.83;;;3.13;;
17347;SDS011;8791;50.876;4.342;2024-03-23T08:25:51;12.93;;;3.10;;
17347;SDS011;8791;50.876;4.342;2024-03-23T08:28:18;17.83;;;3.00;;
17347;SDS011;8791;50.876;4.342;2024-03-23T08:30:44;17.80;;;2.83;;
17347;SDS011;8791;50.876;4.342;2024-03-23T08:33:10;14.07;;;2.93;;
17347;SDS011;8791;50.876;4.342;2024-03-23T08:35:36;16.97;;;2.77;;
17347;SDS011;8791;50.876;4.342;2024-03-23T08:38:04;12.93;;;2.50;;
17347;SDS011;8791;50.876;4.342;2024-03-23T08:40:31;20.27;;;2.93;;
17347;SDS011;8791;50.876;4.342;2024-03-23T08:42:58;13.63;;;2.70;;
17347;SDS011;8791;50.876;4.342;2024-03-23T08:45:24;14.13;;;2.73;;
17347;SDS011;8791;50.876;4.342;2024-03-23T08:47:51;12.47;;;2.27;;
17347;SDS011;8791;50.876;4.342;2024-03-23T08:50:17;12.73;;;2.17;;
17347;SDS011;8791;50.876;4.342;2024-03-23T08:52:44;13.87;;;2.37;;
17347;SDS011;8791;50.876;4.342;2024-03-23T08:55:10;4.73;;;2.20;;
17347;SDS011;8791;50.876;4.342;2024-03-23T08:57:38;9.57;;;2.30;;
17347;SDS011;8791;50.876;4.342;2024-03-23T09:00:05;14.20;;;2.60;;
17347;SDS011;8791;50.876;4.342;2024-03-23T09:02:34;15.60;;;2.50;;
17347;SDS011;8791;50.876;4.342;2024-03-23T09:05:00;15.53;;;2.93;;
17347;SDS011;8791;50.876;4.342;2024-03-23T09:07:29;16.27;;;2.70;;
17347;SDS011;8791;50.876;4.342;2024-03-23T09:09:55;16.57;;;2.50;;
17347;SDS011;8791;50.876;4.342;2024-03-23T09:12:22;11.53;;;2.00;;
17347;SDS011;8791;50.876;4.342;2024-03-23T09:14:50;10.37;;;2.50;;
17347;SDS011;8791;50.876;4.342;2024-03-23T09:17:18;9.27;;;2.23;;
17347;SDS011;8791;50.876;4.342;2024-03-23T09:19:44;15.00;;;3.43;;
17347;SDS011;8791;50.876;4.342;2024-03-23T09:22:11;11.30;;;2.40;;
17347;SDS011;8791;50.876;4.342;2024-03-23T09:24:38;8.90;;;2.10;;
17347;SDS011;8791;50.876;4.342;2024-03-23T09:27:05;19.07;;;2.93;;
17347;SDS011;8791;50.876;4.342;2024-03-23T09:29:31;12.20;;;2.57;;
17347;SDS011;8791;50.876;4.342;2024-03-23T09:31:59;10.20;;;2.70;;
17347;SDS011;8791;50.876;4.342;2024-03-23T09:34:25;12.57;;;2.37;;
17347;SDS011;8791;50.876;4.342;2024-03-23T09:36:52;8.93;;;2.50;;
17347;SDS011;8791;50.876;4.342;2024-03-23T09:39:18;8.17;;;2.80;;
17347;SDS011;8791;50.876;4.342;2024-03-23T09:41:45;9.27;;;2.70;;
17347;SDS011;8791;50.876;4.342;2024-03-23T09:44:11;11.33;;;2.37;;
17347;SDS011;8791;50.876;4.342;2024-03-23T09:46:38;5.33;;;2.37;;
17347;SDS011;8791;50.876;4.342;2024-03-23T09:49:06;13.63;;;2.50;;
17347;SDS011;8791;50.876;4.342;2024-03-23T09:51:35;9.43;;;2.53;;
17347;SDS011;8791;50.876;4.342;2024-03-23T09:54:01;10.67;;;2.80;;
17347;SDS011;8791;50.876;4.342;2024-03-23T09:56:28;14.37;;;2.57;;
17347;SDS011;8791;50.876;4.342;2024-03-23T09:58:59;11.10;;;2.50;;
17347;SDS011;8791;50.876;4.342;2024-03-23T10:01:27;9.67;;;3.10;;
17347;SDS011;8791;50.876;4.342;2024-03-23T10:03:55;7.13;;;2.23;;
17347;SDS011;8791;50.876;4.342;2024-03-23T10:06:23;11.23;;;3.03;;
17347;SDS011;8791;50.876;4.342;2024-03-23T10:08:52;5.97;;;2.10;;
17347;SDS011;8791;50.876;4.342;2024-03-23T10:11:20;10.00;;;2.40;;
17347;SDS011;8791;50.876;4.342;2024-03-23T10:13:46;7.17;;;2.70;;
17347;SDS011;8791;50.876;4.342;2024-03-23T10:16:20;9.27;;;2.77;;
17347;SDS011;8791;50.876;4.342;2024-03-23T10:18:47;11.20;;;2.53;;
17347;SDS011;8791;50.876;4.342;2024-03-23T10:21:14;9.43;;;2.30;;
17347;SDS011;8791;50.876;4.342;2024-03-23T10:23:42;7.23;;;2.47;;
17347;SDS011;8791;50.876;4.342;2024-03-23T10:26:16;8.30;;;2.27;;
17347;SDS011;8791;50.876;4.342;2024-03-23T10:28:53;9.23;;;2.77;;
17347;SDS011;8791;50.876;4.342;2024-03-23T10:31:23;8.17;;;2.20;;
17347;SDS011;8791;50.876;4.342;2024-03-23T10:33:50;10.37;;;2.53;;
17347;SDS011;8791;50.876;4.342;2024-03-23T10:36:20;4.30;;;1.80;;
17347;SDS011;8791;50.876;4.342;2024-03-23T10:38:49;7.37;;;2.27;;
17347;SDS011;8791;50.876;4.342;2024-03-23T10:41:15;6.23;;;2.00;;
17347;SDS011;8791;50.876;4.342;2024-03-23T10:43:43;8.07;;;1.93;;
17347;SDS011;8791;50.876;4.342;2024-03-23T10:46:11;6.80;;;2.17;;
17347;SDS011;8791;50.876;4.342;2024-03-23T10:48:38;6.97;;;2.20;;
17347;SDS011;8791;50.876;4.342;2024-03-23T10:51:05;6.17;;;1.40;;
17347;SDS011;8791;50.876;4.342;2024-03-23T10:53:33;6.37;;;1.87;;
17347;SDS011;8791;50.876;4.342;2024-03-23T10:56:01;7.67;;;1.83;;
17347;SDS011;8791;50.876;4.342;2024-03-23T10:58:30;7.83;;;1.97;;
17347;SDS011;8791;50.876;4.342;2024-03-23T11:00:58;10.07;;;1.87;;
17347;SDS011;8791;50.876;4.342;2024-03-23T11:03:32;9.93;;;1.63;;
17347;SDS011;8791;50.876;4.342;2024-03-23T11:05:59;8.17;;;1.60;;
17347;SDS011;8791;50.876;4.342;2024-03-23T11:08:30;5.90;;;1.50;;
17347;SDS011;8791;50.876;4.342;2024-03-23T11:13:53;8.33;;;1.50;;
17347;SDS011;8791;50.876;4.342;2024-03-23T11:16:23;4.57;;;1.40;;
17347;SDS011;8791;50.876;4.342;2024-03-23T11:18:52;8.03;;;1.53;;
17347;SDS011;8791;50.876;4.342;2024-03-23T11:24:28;4.87;;;1.37;;
17347;SDS011;8791;50.876;4.342;2024-03-23T11:26:55;3.40;;;1.10;;
17347;SDS011;8791;50.876;4.342;2024-03-23T11:29:22;3.00;;;1.13;;
17347;SDS011;8791;50.876;4.342;2024-03-23T11:31:49;6.53;;;1.50;;
17347;SDS011;8791;50.876;4.342;2024-03-23T11:34:17;5.00;;;1.20;;
17347;SDS011;8791;50.876;4.342;2024-03-23T11:36:45;4.67;;;1.33;;
17347;SDS011;8791;50.876;4.342;2024-03-23T11:39:12;7.93;;;1.53;;
17347;SDS011;8791;50.876;4.342;2024-03-23T11:41:47;5.20;;;1.33;;
17347;SDS011;8791;50.876;4.342;2024-03-23T11:44:16;8.77;;;1.40;;
17347;SDS011;8791;50.876;4.342;2024-03-23T11:46:46;6.47;;;1.47;;
17347;SDS011;8791;50.876;4.342;2024-03-23T11:49:21;5.97;;;1.63;;
17347;SDS011;8791;50.876;4.342;2024-03-23T11:51:49;5.03;;;1.63;;
17347;SDS011;8791;50.876;4.342;2024-03-23T11:54:16;7.67;;;1.97;;
17347;SDS011;8791;50.876;4.342;2024-03-23T11:56:55;5.53;;;1.40;;
17347;SDS011;8791;50.876;4.342;2024-03-23T11:59:32;8.17;;;1.70;;
17347;SDS011;8791;50.876;4.342;2024-03-23T12:02:01;7.67;;;1.43;;
17347;SDS011;8791;50.876;4.342;2024-03-23T12:04:31;5.63;;;1.60;;
17347;SDS011;8791;50.876;4.342;2024-03-23T12:07:09;6.33;;;3.10;;
17347;SDS011;8791;50.876;4.342;2024-03-23T12:09:36;3.40;;;1.30;;
17347;SDS011;8791;50.876;4.342;2024-03-23T12:12:07;8.47;;;1.60;;
17347;SDS011;8791;50.876;4.342;2024-03-23T12:14:34;3.00;;;1.50;;
17347;SDS011;8791;50.876;4.342;2024-03-23T12:17:08;6.77;;;1.37;;
17347;SDS011;8791;50.876;4.342;2024-03-23T12:19:35;6.70;;;1.40;;
17347;SDS011;8791;50.876;4.342;2024-03-23T12:22:02;2.43;;;0.97;;
17347;SDS011;8791;50.876;4.342;2024-03-23T12:24:29;1.80;;;1.00;;
17347;SDS011;8791;50.876;4.342;2024-03-23T12:26:59;2.40;;;0.80;;
17347;SDS011;8791;50.876;4.342;2024-03-23T12:29:26;6.13;;;1.17;;
17347;SDS011;8791;50.876;4.342;2024-03-23T12:31:53;2.63;;;1.20;;
17347;SDS011;8791;50.876;4.342;2024-03-23T12:34:22;3.43;;;1.20;;
17347;SDS011;8791;50.876;4.342;2024-03-23T12:36:49;5.20;;;1.43;;
17347;SDS011;8791;50.876;4.342;2024-03-23T12:39:15;2.27;;;1.40;;
17347;SDS011;8791;50.876;4.342;2024-03-23T12:41:42;4.53;;;1.30;;
17347;SDS011;8791;50.876;4.342;2024-03-23T12:44:08;4.67;;;1.47;;
17347;SDS011;8791;50.876;4.342;2024-03-23T12:46:36;6.00;;;1.70;;
17347;SDS011;8791;50.876;4.342;2024-03-23T12:49:02;5.93;;;1.80;;
17347;SDS011;8791;50.876;4.342;2024-03-23T12:51:31;7.00;;;1.70;;
17347;SDS011;8791;50.876;4.342;2024-03-23T12:53:57;4.77;;;1.57;;
17347;SDS011;8791;50.876;4.342;2024-03-23T12:56:24;6.20;;;1.63;;
17347;SDS011;8791;50.876;4.342;2024-03-23T12:58:50;3.27;;;1.50;;
17347;SDS011;8791;50.876;4.342;2024-03-23T13:01:19;4.67;;;1.53;;
17347;SDS011;8791;50.876;4.342;2024-03-23T13:03:46;4.30;;;1.37;;
17347;SDS011;8791;50.876;4.342;2024-03-23T13:06:13;5.43;;;1.30;;
17347;SDS011;8791;50.876;4.342;2024-03-23T13:08:40;7.63;;;1.50;;
17347;SDS011;8791;50.876;4.342;2024-03-23T13:11:08;5.70;;;1.43;;
17347;SDS011;8791;50.876;4.342;2024-03-23T13:13:35;6.10;;;1.27;;
17347;SDS011;8791;50.876;4.342;2024-03-23T13:16:02;3.83;;;1.17;;
17347;SDS011;8791;50.876;4.342;2024-03-23T13:18:29;2.03;;;0.80;;
17347;SDS011;8791;50.876;4.342;2024-03-23T13:20:56;5.47;;;1.20;;
17347;SDS011;8791;50.876;4.342;2024-03-23T13:23:22;5.43;;;1.17;;
17347;SDS011;8791;50.876;4.342;2024-03-23T13:25:54;10.27;;;1.60;;
17347;SDS011;8791;50.876;4.342;2024-03-23T13:28:20;6.63;;;2.00;;
17347;SDS011;8791;50.876;4.342;2024-03-23T13:30:50;4.67;;;1.30;;
17347;SDS011;8791;50.876;4.342;2024-03-23T13:33:17;4.00;;;1.70;;
17347;SDS011;8791;50.876;4.342;2024-03-23T13:35:50;4.03;;;1.27;;
17347;SDS011;8791;50.876;4.342;2024-03-23T13:38:16;7.17;;;1.60;;
17347;SDS011;8791;50.876;4.342;2024-03-23T13:40:50;6.10;;;1.13;;
17347;SDS011;8791;50.876;4.342;2024-03-23T13:43:18;6.50;;;1.40;;
17347;SDS011;8791;50.876;4.342;2024-03-23T13:45:45;6.27;;;1.33;;
17347;SDS011;8791;50.876;4.342;2024-03-23T13:48:11;7.83;;;1.80;;
17347;SDS011;8791;50.876;4.342;2024-03-23T13:50:38;10.00;;;1.73;;
17347;SDS011;8791;50.876;4.342;2024-03-23T13:53:04;4.43;;;1.73;;
17347;SDS011;8791;50.876;4.342;2024-03-23T13:55:33;6.23;;;1.23;;
17347;SDS011;8791;50.876;4.342;2024-03-23T13:57:59;7.77;;;1.57;;
17347;SDS011;8791;50.876;4.342;2024-03-23T14:00:27;6.10;;;1.43;;
17347;SDS011;8791;50.876;4.342;2024-03-23T14:02:53;7.87;;;1.90;;
17347;SDS011;8791;50.876;4.342;2024-03-23T14:05:20;3.67;;;1.40;;
17347;SDS011;8791;50.876;4.342;2024-03-23T14:07:46;9.97;;;1.87;;
17347;SDS011;8791;50.876;4.342;2024-03-23T14:10:13;6.17;;;1.67;;
17347;SDS011;8791;50.876;4.342;2024-03-23T14:12:39;4.33;;;1.63;;
17347;SDS011;8791;50.876;4.342;2024-03-23T14:15:07;7.17;;;1.40;;
17347;SDS011;8791;50.876;4.342;2024-03-23T14:17:34;5.37;;;1.60;;
17347;SDS011;8791;50.876;4.342;2024-03-23T14:20:01;8.53;;;1.63;;
17347;SDS011;8791;50.876;4.342;2024-03-23T14:22:30;4.93;;;1.87;;
17347;SDS011;8791;50.876;4.342;2024-03-23T14:24:57;6.77;;;1.57;;
17347;SDS011;8791;50.876;4.342;2024-03-23T14:27:23;6.33;;;1.13;;
17347;SDS011;8791;50.876;4.342;2024-03-23T14:29:50;5.67;;;1.60;;
17347;SDS011;8791;50.876;4.342;2024-03-23T14:32:16;8.60;;;1.77;;
17347;SDS011;8791;50.876;4.342;2024-03-23T14:34:44;12.90;;;2.43;;
17347;SDS011;8791;50.876;4.342;2024-03-23T14:37:11;10.43;;;1.50;;
17347;SDS011;8791;50.876;4.342;2024-03-23T14:39:40;3.43;;;1.20;;
17347;SDS011;8791;50.876;4.342;2024-03-23T14:42:06;6.33;;;1.17;;
17347;SDS011;8791;50.876;4.342;2024-03-23T14:44:34;3.77;;;1.33;;
17347;SDS011;8791;50.876;4.342;2024-03-23T14:47:00;9.70;;;1.63;;
17347;SDS011;8791;50.876;4.342;2024-03-23T14:49:27;10.63;;;1.40;;
17347;SDS011;8791;50.876;4.342;2024-03-23T14:51:54;4.80;;;1.27;;
17347;SDS011;8791;50.876;4.342;2024-03-23T14:54:21;7.90;;;1.00;;
17347;SDS011;8791;50.876;4.342;2024-03-23T14:56:47;5.73;;;1.10;;
17347;SDS011;8791;50.876;4.342;2024-03-23T14:59:14;3.43;;;1.20;;
17347;SDS011;8791;50.876;4.342;2024-03-23T15:01:39;7.87;;;1.63;;
17347;SDS011;8791;50.876;4.342;2024-03-23T15:04:07;6.30;;;1.47;;
17347;SDS011;8791;50.876;4.342;2024-03-23T15:06:33;6.73;;;1.90;;
17347;SDS011;8791;50.876;4.342;2024-03-23T15:09:01;17.13;;;1.80;;
17347;SDS011;8791;50.876;4.342;2024-03-23T15:11:32;6.13;;;1.60;;
17347;SDS011;8791;50.876;4.342;2024-03-23T15:13:59;5.77;;;1.40;;
17347;SDS011;8791;50.876;4.342;2024-03-23T15:16:24;3.87;;;1.47;;
17347;SDS011;8791;50.876;4.342;2024-03-23T15:18:51;9.00;;;1.80;;
17347;SDS011;8791;50.876;4.342;2024-03-23T15:21:17;3.10;;;1.20;;
17347;SDS011;8791;50.876;4.342;2024-03-23T15:23:46;4.07;;;1.50;;
17347;SDS011;8791;50.876;4.342;2024-03-23T15:26:13;7.40;;;1.50;;
17347;SDS011;8791;50.876;4.342;2024-03-23T15:28:41;3.10;;;1.33;;
17347;SDS011;8791;50.876;4.342;2024-03-23T15:31:27;4.90;;;1.33;;
17347;SDS011;8791;50.876;4.342;2024-03-23T15:33:54;6.53;;;1.70;;
17347;SDS011;8791;50.876;4.342;2024-03-23T15:36:20;5.67;;;1.67;;
17347;SDS011;8791;50.876;4.342;2024-03-23T15:38:47;7.87;;;1.87;;
17347;SDS011;8791;50.876;4.342;2024-03-23T15:41:15;5.63;;;1.80;;
17347;SDS011;8791;50.876;4.342;2024-03-23T15:43:42;7.23;;;1.97;;
17347;SDS011;8791;50.876;4.342;2024-03-23T15:46:08;6.83;;;1.73;;
17347;SDS011;8791;50.876;4.342;2024-03-23T15:48:36;8.13;;;1.93;;
17347;SDS011;8791;50.876;4.342;2024-03-23T15:51:02;9.03;;;1.80;;
17347;SDS011;8791;50.876;4.342;2024-03-23T15:53:30;8.77;;;2.00;;
17347;SDS011;8791;50.876;4.342;2024-03-23T15:55:56;7.20;;;1.80;;